PWSweather.com
Personal Weather Stations
Station Observations
KCACHEST1
Chester, CA 96020

Chester, CA 96020

Lat: 40.2965, Lon: -121.228088

Elevation: 4530

Station Type: Davis Vantage Pro

http://www.chesterweathercenter.com/

Latest ConditionsUpdated 8:00:03 PM PDT Saturday, May 23, 2015
Currently Today's Max Today's Min Today's Average
Temperature 56.7°F13.7°C 59.4°F15.2°C 44.3°F6.8°C 52.5°F11.4°C
Dew Point 45.4°F7.4°C 47.2°F8.4°C 41.3°F5.2°C 44.2°F6.8°C
Winds Calm Calm 1.0 mph S1.6 kmh S - 0.0 mph 0.0 kmh
Wind Gusts -- 3.0 mph4.8 kmh - -
Humidity 66% 90% 53% 75%
Pressure 29.79 in1008.8 mb 29.84 in1010.5 mb 29.76 in1007.8 mb -
Hour Temp Dew Point Humidity Winds Wind Gusts Pressure Precip Precip Rate Daily Precip Total
08:00 PM 56.7°F13.7°C 45.4°F7.4°C 66% Calm Calm -- 29.79 in1008.8 mb - 0.00 in0.0 mm 0.02 in0.5 mm
07:50 PM 57.3°F14.1°C 44.0°F6.7°C 61% Calm Calm -- 29.78 in1008.5 mb - 0.00 in0.0 mm 0.02 in0.5 mm
07:40 PM 57.9°F14.4°C 43.6°F6.4°C 59% Calm Calm -- 29.78 in1008.5 mb - 0.00 in0.0 mm 0.02 in0.5 mm
07:30 PM 58.0°F14.4°C 43.3°F6.3°C 58% Calm Calm -- 29.78 in1008.5 mb - 0.00 in0.0 mm 0.02 in0.5 mm
07:20 PM 58.0°F14.4°C 42.8°F6.0°C 57% Calm Calm -- 29.77 in1008.1 mb - 0.00 in0.0 mm 0.02 in0.5 mm
07:10 PM 58.0°F14.4°C 45.9°F7.7°C 64% Calm Calm -- 29.77 in1008.1 mb - 0.00 in0.0 mm 0.02 in0.5 mm
07:00 PM 58.1°F14.5°C 46.8°F8.2°C 66% Calm Calm -- 29.78 in1008.5 mb - 0.00 in0.0 mm 0.02 in0.5 mm
06:50 PM 58.1°F14.5°C 46.0°F7.8°C 64% Calm Calm -- 29.78 in1008.5 mb - 0.00 in0.0 mm 0.02 in0.5 mm
06:40 PM 58.1°F14.5°C 46.0°F7.8°C 64% Calm Calm -- 29.78 in1008.5 mb - 0.00 in0.0 mm 0.02 in0.5 mm
06:30 PM 58.3°F14.6°C 45.3°F7.4°C 62% Calm Calm -- 29.78 in1008.5 mb - 0.00 in0.0 mm 0.02 in0.5 mm
06:20 PM 58.1°F14.5°C 45.6°F7.6°C 63% Calm Calm -- 29.77 in1008.1 mb - 0.00 in0.0 mm 0.02 in0.5 mm
06:10 PM 58.3°F14.6°C 44.9°F7.2°C 61% Calm Calm -- 29.78 in1008.5 mb - 0.00 in0.0 mm 0.02 in0.5 mm
06:00 PM 58.4°F14.7°C 44.6°F7.0°C 60% Calm Calm -- 29.80 in1009.1 mb - 0.00 in0.0 mm 0.02 in0.5 mm
05:50 PM 58.7°F14.8°C 44.4°F6.9°C 59% Calm Calm -- 29.79 in1008.8 mb - 0.00 in0.0 mm 0.02 in0.5 mm
05:40 PM 59.1°F15.1°C 44.8°F7.1°C 59% Calm Calm -- 29.79 in1008.8 mb - 0.00 in0.0 mm 0.02 in0.5 mm
05:30 PM 58.8°F14.9°C 45.0°F7.2°C 60% Calm Calm -- 29.79 in1008.8 mb - 0.00 in0.0 mm 0.02 in0.5 mm
05:20 PM 58.4°F14.7°C 45.0°F7.2°C 61% Calm Calm -- 29.79 in1008.8 mb - 0.00 in0.0 mm 0.02 in0.5 mm
05:10 PM 58.1°F14.5°C 44.7°F7.1°C 61% Calm Calm -- 29.80 in1009.1 mb - 0.00 in0.0 mm 0.02 in0.5 mm
05:00 PM 57.8°F14.3°C 44.0°F6.7°C 60% Calm Calm -- 29.80 in1009.1 mb - 0.00 in0.0 mm 0.02 in0.5 mm
04:50 PM 57.6°F14.2°C 44.2°F6.8°C 61% Calm Calm -- 29.80 in1009.1 mb - 0.00 in0.0 mm 0.02 in0.5 mm
04:40 PM 57.5°F14.2°C 45.0°F7.2°C 63% Calm Calm -- 29.80 in1009.1 mb - 0.00 in0.0 mm 0.02 in0.5 mm
04:30 PM 57.5°F14.2°C 45.0°F7.2°C 63% Calm Calm -- 29.80 in1009.1 mb - 0.00 in0.0 mm 0.02 in0.5 mm
04:20 PM 57.5°F14.2°C 44.6°F7.0°C 62% Calm Calm -- 29.80 in1009.1 mb - 0.00 in0.0 mm 0.02 in0.5 mm
04:10 PM 57.3°F14.1°C 44.4°F6.9°C 62% Calm Calm -- 29.80 in1009.1 mb - 0.00 in0.0 mm 0.02 in0.5 mm
04:00 PM 57.8°F14.3°C 42.6°F5.9°C 57% Calm Calm -- 29.79 in1008.8 mb - 0.01 in0.3 mm 0.02 in0.5 mm
03:50 PM 57.6°F14.2°C 43.3°F6.3°C 59% Calm Calm -- 29.80 in1009.1 mb - 0.00 in0.0 mm 0.01 in0.3 mm
03:40 PM 57.2°F14.0°C 43.0°F6.1°C 59% 1.0 mph S1.6 kmh S 3.0 mph4.8 kmh 29.79 in1008.8 mb - 0.00 in0.0 mm 0.01 in0.3 mm
03:30 PM 57.0°F13.9°C 44.9°F7.2°C 64% Calm Calm -- 29.80 in1009.1 mb - 0.00 in0.0 mm 0.01 in0.3 mm
03:20 PM 56.9°F13.8°C 45.3°F7.4°C 65% Calm Calm 2.0 mph3.2 kmh 29.80 in1009.1 mb - 0.00 in0.0 mm 0.01 in0.3 mm
03:10 PM 56.5°F13.6°C 45.7°F7.6°C 67% Calm Calm -- 29.79 in1008.8 mb - 0.00 in0.0 mm 0.01 in0.3 mm
03:00 PM 56.3°F13.5°C 45.1°F7.3°C 66% Calm Calm 2.0 mph3.2 kmh 29.79 in1008.8 mb - 0.00 in0.0 mm 0.01 in0.3 mm
02:50 PM 56.3°F13.5°C 46.2°F7.9°C 69% Calm Calm -- 29.80 in1009.1 mb - 0.00 in0.0 mm 0.01 in0.3 mm
02:40 PM 56.0°F13.3°C 45.5°F7.5°C 68% Calm Calm 1.0 mph1.6 kmh 29.81 in1009.5 mb - 0.00 in0.0 mm 0.01 in0.3 mm
02:30 PM 55.1°F12.8°C 43.9°F6.6°C 66% Calm Calm -- 29.81 in1009.5 mb - 0.00 in0.0 mm 0.01 in0.3 mm
02:20 PM 54.4°F12.4°C 44.8°F7.1°C 70% Calm Calm 1.0 mph1.6 kmh 29.81 in1009.5 mb - 0.00 in0.0 mm 0.01 in0.3 mm
02:10 PM 54.4°F12.4°C 45.2°F7.3°C 71% Calm Calm -- 29.81 in1009.5 mb - 0.00 in0.0 mm 0.01 in0.3 mm
02:00 PM 54.7°F12.6°C 46.6°F8.1°C 74% Calm Calm -- 29.81 in1009.5 mb - 0.00 in0.0 mm 0.01 in0.3 mm
01:50 PM 54.5°F12.5°C 45.7°F7.6°C 72% Calm Calm -- 29.81 in1009.5 mb - 0.00 in0.0 mm 0.01 in0.3 mm
01:40 PM 54.8°F12.7°C 44.4°F6.9°C 68% Calm Calm -- 29.81 in1009.5 mb - 0.00 in0.0 mm 0.01 in0.3 mm
01:30 PM 55.1°F12.8°C 45.5°F7.5°C 70% Calm Calm -- 29.81 in1009.5 mb - 0.00 in0.0 mm 0.01 in0.3 mm
01:20 PM 55.8°F13.2°C 45.4°F7.4°C 68% Calm Calm -- 29.81 in1009.5 mb - 0.01 in0.3 mm 0.01 in0.3 mm
01:10 PM 56.5°F13.6°C 44.9°F7.2°C 65% Calm Calm -- 29.80 in1009.1 mb - 0.00 in0.0 mm 0.00 in0.0 mm
01:00 PM 56.6°F13.7°C 45.4°F7.4°C 66% Calm Calm -- 29.80 in1009.1 mb - 0.00 in0.0 mm 0.00 in0.0 mm
12:50 PM 57.4°F14.1°C 45.3°F7.4°C 64% Calm Calm -- 29.80 in1009.1 mb - 0.00 in0.0 mm 0.00 in0.0 mm
12:40 PM 58.9°F14.9°C 47.2°F8.4°C 65% Calm Calm -- 29.79 in1008.8 mb - 0.00 in0.0 mm 0.00 in0.0 mm
12:30 PM 59.4°F15.2°C 43.7°F6.5°C 56% Calm Calm -- 29.79 in1008.8 mb - 0.00 in0.0 mm 0.00 in0.0 mm
12:20 PM 59.0°F15.0°C 41.9°F5.5°C 53% Calm Calm -- 29.79 in1008.8 mb - 0.00 in0.0 mm 0.00 in0.0 mm
12:10 PM 57.2°F14.0°C 41.6°F5.3°C 56% Calm Calm 1.0 mph1.6 kmh 29.79 in1008.8 mb - 0.00 in0.0 mm 0.00 in0.0 mm
12:00 PM 57.7°F14.3°C 41.6°F5.3°C 55% Calm Calm 1.0 mph1.6 kmh 29.79 in1008.8 mb - 0.00 in0.0 mm 0.00 in0.0 mm
11:50 AM 58.0°F14.4°C 43.3°F6.3°C 58% Calm Calm 1.0 mph1.6 kmh 29.79 in1008.8 mb - 0.00 in0.0 mm 0.00 in0.0 mm
11:40 AM 56.3°F13.5°C 45.1°F7.3°C 66% Calm Calm -- 29.80 in1009.1 mb - 0.00 in0.0 mm 0.00 in0.0 mm
11:30 AM 56.6°F13.7°C 42.4°F5.8°C 59% Calm Calm -- 29.79 in1008.8 mb - 0.00 in0.0 mm 0.00 in0.0 mm
11:20 AM 56.0°F13.3°C 42.7°F5.9°C 61% Calm Calm -- 29.80 in1009.1 mb - 0.00 in0.0 mm 0.00 in0.0 mm
11:10 AM 55.6°F13.1°C 42.4°F5.8°C 61% Calm Calm -- 29.80 in1009.1 mb - 0.00 in0.0 mm 0.00 in0.0 mm
11:00 AM 56.3°F13.5°C 42.6°F5.9°C 60% Calm Calm -- 29.79 in1008.8 mb - 0.00 in0.0 mm 0.00 in0.0 mm
10:50 AM 56.7°F13.7°C 42.5°F5.8°C 59% Calm Calm -- 29.79 in1008.8 mb - 0.00 in0.0 mm 0.00 in0.0 mm
10:40 AM 55.7°F13.2°C 43.3°F6.3°C 63% Calm Calm 1.0 mph1.6 kmh 29.80 in1009.1 mb - 0.00 in0.0 mm 0.00 in0.0 mm
10:30 AM 55.6°F13.1°C 44.0°F6.7°C 65% Calm Calm -- 29.79 in1008.8 mb - 0.00 in0.0 mm 0.00 in0.0 mm
10:20 AM 57.1°F13.9°C 43.3°F6.3°C 60% Calm Calm -- 29.79 in1008.8 mb - 0.00 in0.0 mm 0.00 in0.0 mm
10:10 AM 56.6°F13.7°C 44.2°F6.8°C 63% Calm Calm -- 29.80 in1009.1 mb - 0.00 in0.0 mm 0.00 in0.0 mm
10:00 AM 55.3°F12.9°C 42.9°F6.1°C 63% Calm Calm 1.0 mph1.6 kmh 29.80 in1009.1 mb - 0.00 in0.0 mm 0.00 in0.0 mm
09:50 AM 55.6°F13.1°C 42.8°F6.0°C 62% Calm Calm 1.0 mph1.6 kmh 29.80 in1009.1 mb - 0.00 in0.0 mm 0.00 in0.0 mm
09:40 AM 55.5°F13.1°C 43.1°F6.2°C 63% Calm Calm -- 29.79 in1008.8 mb - 0.00 in0.0 mm 0.00 in0.0 mm
09:30 AM 54.6°F12.6°C 43.9°F6.6°C 67% Calm Calm -- 29.80 in1009.1 mb - 0.00 in0.0 mm 0.00 in0.0 mm
09:20 AM 52.4°F11.3°C 45.4°F7.4°C 77% Calm Calm -- 29.81 in1009.5 mb - 0.00 in0.0 mm 0.00 in0.0 mm
09:10 AM 50.6°F10.3°C 44.7°F7.1°C 80% Calm Calm -- 29.82 in1009.8 mb - 0.00 in0.0 mm 0.00 in0.0 mm
09:00 AM 49.9°F9.9°C 44.9°F7.2°C 83% Calm Calm -- 29.82 in1009.8 mb - 0.00 in0.0 mm 0.00 in0.0 mm
08:50 AM 49.8°F9.9°C 44.8°F7.1°C 83% Calm Calm -- 29.82 in1009.8 mb - 0.00 in0.0 mm 0.00 in0.0 mm
08:40 AM 49.8°F9.9°C 45.2°F7.3°C 84% Calm Calm -- 29.82 in1009.8 mb - 0.00 in0.0 mm 0.00 in0.0 mm
08:30 AM 49.9°F9.9°C 46.8°F8.2°C 89% Calm Calm -- 29.82 in1009.8 mb - 0.00 in0.0 mm 0.00 in0.0 mm
08:20 AM 48.7°F9.3°C 45.9°F7.7°C 90% Calm Calm -- 29.83 in1010.2 mb - 0.00 in0.0 mm 0.00 in0.0 mm
08:10 AM 48.2°F9.0°C 45.4°F7.4°C 90% Calm Calm -- 29.84 in1010.5 mb - 0.00 in0.0 mm 0.00 in0.0 mm
08:00 AM 47.8°F8.8°C 45.0°F7.2°C 90% Calm Calm -- 29.82 in1009.8 mb - 0.00 in0.0 mm 0.00 in0.0 mm
07:50 AM 47.4°F8.6°C 44.6°F7.0°C 90% Calm Calm -- 29.83 in1010.2 mb - 0.00 in0.0 mm 0.00 in0.0 mm
07:40 AM 46.8°F8.2°C 44.1°F6.7°C 90% Calm Calm -- 29.83 in1010.2 mb - 0.00 in0.0 mm 0.00 in0.0 mm
07:30 AM 46.3°F7.9°C 43.6°F6.4°C 90% Calm Calm -- 29.83 in1010.2 mb - 0.00 in0.0 mm 0.00 in0.0 mm
07:20 AM 46.1°F7.8°C 43.3°F6.3°C 90% Calm Calm -- 29.83 in1010.2 mb - 0.00 in0.0 mm 0.00 in0.0 mm
07:10 AM 46.0°F7.8°C 43.2°F6.2°C 90% Calm Calm -- 29.83 in1010.2 mb - 0.00 in0.0 mm 0.00 in0.0 mm
07:00 AM 45.7°F7.6°C 42.9°F6.1°C 90% Calm Calm -- 29.83 in1010.2 mb - 0.00 in0.0 mm 0.00 in0.0 mm
06:50 AM 45.5°F7.5°C 42.7°F5.9°C 90% Calm Calm -- 29.82 in1009.8 mb - 0.00 in0.0 mm 0.00 in0.0 mm
06:40 AM 45.2°F7.3°C 42.4°F5.8°C 90% Calm Calm -- 29.82 in1009.8 mb - 0.00 in0.0 mm 0.00 in0.0 mm
06:30 AM 44.6°F7.0°C 41.6°F5.3°C 89% Calm Calm -- 29.82 in1009.8 mb - 0.00 in0.0 mm 0.00 in0.0 mm
06:20 AM 44.5°F6.9°C 41.5°F5.3°C 89% Calm Calm -- 29.82 in1009.8 mb - 0.00 in0.0 mm 0.00 in0.0 mm
06:10 AM 44.5°F6.9°C 41.5°F5.3°C 89% Calm Calm -- 29.83 in1010.2 mb - 0.00 in0.0 mm 0.00 in0.0 mm
06:00 AM 44.3°F6.8°C 41.3°F5.2°C 89% Calm Calm -- 29.82 in1009.8 mb - 0.00 in0.0 mm 0.00 in0.0 mm
05:50 AM 44.5°F6.9°C 41.5°F5.3°C 89% Calm Calm -- 29.81 in1009.5 mb - 0.00 in0.0 mm 0.00 in0.0 mm
05:40 AM 44.8°F7.1°C 41.8°F5.4°C 89% Calm Calm -- 29.81 in1009.5 mb - 0.00 in0.0 mm 0.00 in0.0 mm
05:30 AM 44.9°F7.2°C 41.9°F5.5°C 89% Calm Calm -- 29.81 in1009.5 mb - 0.00 in0.0 mm 0.00 in0.0 mm
05:20 AM 44.9°F7.2°C 41.9°F5.5°C 89% Calm Calm -- 29.81 in1009.5 mb - 0.00 in0.0 mm 0.00 in0.0 mm
05:10 AM 45.1°F7.3°C 42.1°F5.6°C 89% Calm Calm -- 29.81 in1009.5 mb - 0.00 in0.0 mm 0.00 in0.0 mm
05:00 AM 45.2°F7.3°C 42.2°F5.7°C 89% Calm Calm -- 29.80 in1009.1 mb - 0.00 in0.0 mm 0.00 in0.0 mm
04:50 AM 45.4°F7.4°C 42.3°F5.7°C 89% Calm Calm -- 29.80 in1009.1 mb - 0.00 in0.0 mm 0.00 in0.0 mm
04:40 AM 45.5°F7.5°C 42.4°F5.8°C 89% Calm Calm -- 29.79 in1008.8 mb - 0.00 in0.0 mm 0.00 in0.0 mm
04:30 AM 45.7°F7.6°C 42.6°F5.9°C 89% Calm Calm -- 29.79 in1008.8 mb - 0.00 in0.0 mm 0.00 in0.0 mm
04:20 AM 45.8°F7.7°C 42.7°F5.9°C 89% Calm Calm -- 29.79 in1008.8 mb - 0.00 in0.0 mm 0.00 in0.0 mm
04:10 AM 46.0°F7.8°C 42.9°F6.1°C 89% Calm Calm -- 29.79 in1008.8 mb - 0.00 in0.0 mm 0.00 in0.0 mm
04:00 AM 46.1°F7.8°C 42.7°F5.9°C 88% Calm Calm -- 29.79 in1008.8 mb - 0.00 in0.0 mm 0.00 in0.0 mm
03:50 AM 46.1°F7.8°C 42.8°F6.0°C 88% Calm Calm -- 29.79 in1008.8 mb - 0.00 in0.0 mm 0.00 in0.0 mm
03:40 AM 46.5°F8.1°C 43.1°F6.2°C 88% Calm Calm -- 29.78 in1008.5 mb - 0.00 in0.0 mm 0.00 in0.0 mm
03:30 AM 46.8°F8.2°C 43.4°F6.3°C 88% Calm Calm -- 29.79 in1008.8 mb - 0.00 in0.0 mm 0.00 in0.0 mm
03:20 AM 47.1°F8.4°C 43.7°F6.5°C 88% Calm Calm -- 29.79 in1008.8 mb - 0.00 in0.0 mm 0.00 in0.0 mm
03:10 AM 47.3°F8.5°C 43.9°F6.6°C 88% Calm Calm -- 29.79 in1008.8 mb - 0.00 in0.0 mm 0.00 in0.0 mm
03:00 AM 47.6°F8.7°C 44.2°F6.8°C 88% Calm Calm -- 29.78 in1008.5 mb - 0.00 in0.0 mm 0.00 in0.0 mm
02:50 AM 47.8°F8.8°C 44.4°F6.9°C 88% Calm Calm -- 29.77 in1008.1 mb - 0.00 in0.0 mm 0.00 in0.0 mm
02:40 AM 48.0°F8.9°C 44.6°F7.0°C 88% Calm Calm -- 29.78 in1008.5 mb - 0.00 in0.0 mm 0.00 in0.0 mm
02:30 AM 48.3°F9.1°C 44.9°F7.2°C 88% Calm Calm -- 29.78 in1008.5 mb - 0.00 in0.0 mm 0.00 in0.0 mm
02:20 AM 48.6°F9.2°C 45.2°F7.3°C 88% Calm Calm -- 29.78 in1008.5 mb - 0.00 in0.0 mm 0.00 in0.0 mm
02:10 AM 48.8°F9.3°C 45.4°F7.4°C 88% Calm Calm -- 29.77 in1008.1 mb - 0.00 in0.0 mm 0.00 in0.0 mm
02:00 AM 49.1°F9.5°C 46.0°F7.8°C 89% Calm Calm -- 29.76 in1007.8 mb - 0.00 in0.0 mm 0.00 in0.0 mm
01:50 AM 49.2°F9.6°C 46.1°F7.8°C 89% Calm Calm -- 29.76 in1007.8 mb - 0.00 in0.0 mm 0.00 in0.0 mm
01:40 AM 49.2°F9.6°C 46.1°F7.8°C 89% Calm Calm -- 29.76 in1007.8 mb - 0.00 in0.0 mm 0.00 in0.0 mm
01:30 AM 49.2°F9.6°C 46.0°F7.8°C 89% Calm Calm -- 29.76 in1007.8 mb - 0.00 in0.0 mm 0.00 in0.0 mm
01:20 AM 48.9°F9.4°C 45.8°F7.7°C 89% Calm Calm -- 29.76 in1007.8 mb - 0.00 in0.0 mm 0.00 in0.0 mm
01:10 AM 49.1°F9.5°C 46.0°F7.8°C 89% Calm Calm -- 29.77 in1008.1 mb - 0.00 in0.0 mm 0.00 in0.0 mm
01:00 AM 49.1°F9.5°C 45.7°F7.6°C 88% Calm Calm -- 29.77 in1008.1 mb - 0.00 in0.0 mm 0.00 in0.0 mm
12:50 AM 49.2°F9.6°C 45.8°F7.7°C 88% Calm Calm -- 29.77 in1008.1 mb - 0.00 in0.0 mm 0.00 in0.0 mm
12:40 AM 49.4°F9.7°C 46.0°F7.8°C 88% Calm Calm -- 29.77 in1008.1 mb - 0.00 in0.0 mm 0.00 in0.0 mm
12:30 AM 49.5°F9.7°C 46.4°F8.0°C 89% Calm Calm -- 29.77 in1008.1 mb - 0.00 in0.0 mm 0.00 in0.0 mm
12:20 AM 49.4°F9.7°C 46.3°F7.9°C 89% Calm Calm -- 29.78 in1008.5 mb - 0.00 in0.0 mm 0.00 in0.0 mm
12:10 AM 49.4°F9.7°C 46.0°F7.8°C 88% Calm Calm -- 29.78 in1008.5 mb - 0.00 in0.0 mm 0.00 in0.0 mm
12:00 AM 49.4°F9.7°C 46.0°F7.8°C 88% Calm Calm -- 29.79 in1008.8 mb - 0.00 in0.0 mm 0.00 in0.0 mm